sensor_id;sensor_type;location;lat;lon;timestamp;temperature;humidity
12568;DHT22;6349;50.904;6.136;2023-01-31T00:01:27;4.10;99.90
12568;DHT22;6349;50.904;6.136;2023-01-31T00:03:28;4.10;99.90
12568;DHT22;6349;50.904;6.136;2023-01-31T00:05:29;4.10;99.90
12568;DHT22;6349;50.904;6.136;2023-01-31T00:07:29;4.10;99.90
12568;DHT22;6349;50.904;6.136;2023-01-31T00:09:30;4.10;99.90
12568;DHT22;6349;50.904;6.136;2023-01-31T00:11:31;4.10;99.90
12568;DHT22;6349;50.904;6.136;2023-01-31T00:13:32;4.10;99.90
12568;DHT22;6349;50.904;6.136;2023-01-31T00:15:32;4.10;99.90
12568;DHT22;6349;50.904;6.136;2023-01-31T00:17:33;4.00;99.90
12568;DHT22;6349;50.904;6.136;2023-01-31T00:19:34;4.00;99.90
12568;DHT22;6349;50.904;6.136;2023-01-31T00:21:34;4.00;99.90
12568;DHT22;6349;50.904;6.136;2023-01-31T00:23:35;4.00;99.90
12568;DHT22;6349;50.904;6.136;2023-01-31T00:25:36;4.00;99.90
12568;DHT22;6349;50.904;6.136;2023-01-31T00:27:36;4.00;99.90
12568;DHT22;6349;50.904;6.136;2023-01-31T00:29:37;4.00;99.90
12568;DHT22;6349;50.904;6.136;2023-01-31T00:31:38;4.00;99.90
12568;DHT22;6349;50.904;6.136;2023-01-31T00:33:41;4.00;99.90
12568;DHT22;6349;50.904;6.136;2023-01-31T00:35:42;3.90;99.90
12568;DHT22;6349;50.904;6.136;2023-01-31T00:37:42;4.00;99.90
12568;DHT22;6349;50.904;6.136;2023-01-31T00:39:43;3.90;99.90
12568;DHT22;6349;50.904;6.136;2023-01-31T00:41:43;4.00;99.90
12568;DHT22;6349;50.904;6.136;2023-01-31T00:43:44;4.00;99.90
12568;DHT22;6349;50.904;6.136;2023-01-31T00:45:44;3.90;99.90
12568;DHT22;6349;50.904;6.136;2023-01-31T00:47:45;3.90;99.90
12568;DHT22;6349;50.904;6.136;2023-01-31T00:49:45;3.90;99.90
12568;DHT22;6349;50.904;6.136;2023-01-31T00:51:46;3.90;99.90
12568;DHT22;6349;50.904;6.136;2023-01-31T00:53:47;3.80;99.90
12568;DHT22;6349;50.904;6.136;2023-01-31T00:55:50;3.80;99.90
12568;DHT22;6349;50.904;6.136;2023-01-31T00:57:51;3.80;99.90
12568;DHT22;6349;50.904;6.136;2023-01-31T00:59:52;3.80;99.90
12568;DHT22;6349;50.904;6.136;2023-01-31T01:01:52;3.80;99.90
12568;DHT22;6349;50.904;6.136;2023-01-31T01:03:55;3.80;99.90
12568;DHT22;6349;50.904;6.136;2023-01-31T01:05:56;3.80;99.90
12568;DHT22;6349;50.904;6.136;2023-01-31T01:07:56;3.80;99.90
12568;DHT22;6349;50.904;6.136;2023-01-31T01:09:57;3.80;99.90
12568;DHT22;6349;50.904;6.136;2023-01-31T01:11:58;3.80;99.90
12568;DHT22;6349;50.904;6.136;2023-01-31T01:13:59;3.80;99.90
12568;DHT22;6349;50.904;6.136;2023-01-31T01:16:13;3.80;99.90
12568;DHT22;6349;50.904;6.136;2023-01-31T01:18:13;3.80;99.90
12568;DHT22;6349;50.904;6.136;2023-01-31T01:20:15;3.80;99.90
12568;DHT22;6349;50.904;6.136;2023-01-31T01:22:16;3.80;99.90
12568;DHT22;6349;50.904;6.136;2023-01-31T01:24:18;3.80;99.90
12568;DHT22;6349;50.904;6.136;2023-01-31T01:26:21;3.80;99.90
12568;DHT22;6349;50.904;6.136;2023-01-31T01:28:22;3.90;99.90
12568;DHT22;6349;50.904;6.136;2023-01-31T01:30:22;3.90;99.90
12568;DHT22;6349;50.904;6.136;2023-01-31T01:32:23;3.80;99.90
12568;DHT22;6349;50.904;6.136;2023-01-31T01:34:24;3.80;99.90
12568;DHT22;6349;50.904;6.136;2023-01-31T01:36:25;3.80;99.90
12568;DHT22;6349;50.904;6.136;2023-01-31T01:38:25;3.80;99.90
12568;DHT22;6349;50.904;6.136;2023-01-31T01:40:35;3.80;99.90
12568;DHT22;6349;50.904;6.136;2023-01-31T01:42:36;3.80;99.90
12568;DHT22;6349;50.904;6.136;2023-01-31T01:44:58;3.80;99.90
12568;DHT22;6349;50.904;6.136;2023-01-31T01:46:59;3.80;99.90
12568;DHT22;6349;50.904;6.136;2023-01-31T01:49:19;3.80;99.90
12568;DHT22;6349;50.904;6.136;2023-01-31T01:51:22;3.80;99.90
12568;DHT22;6349;50.904;6.136;2023-01-31T01:53:24;3.80;99.90
12568;DHT22;6349;50.904;6.136;2023-01-31T01:55:46;3.80;99.90
12568;DHT22;6349;50.904;6.136;2023-01-31T01:57:52;3.80;99.90
12568;DHT22;6349;50.904;6.136;2023-01-31T02:00:31;3.80;99.90
12568;DHT22;6349;50.904;6.136;2023-01-31T02:02:21;3.80;99.90
12568;DHT22;6349;50.904;6.136;2023-01-31T02:04:29;3.80;99.90
12568;DHT22;6349;50.904;6.136;2023-01-31T02:06:31;3.70;99.90
12568;DHT22;6349;50.904;6.136;2023-01-31T02:08:34;3.70;99.90
12568;DHT22;6349;50.904;6.136;2023-01-31T02:10:52;3.70;99.90
12568;DHT22;6349;50.904;6.136;2023-01-31T02:12:55;3.70;99.90
12568;DHT22;6349;50.904;6.136;2023-01-31T02:14:55;3.70;99.90
12568;DHT22;6349;50.904;6.136;2023-01-31T02:16:56;3.70;99.90
12568;DHT22;6349;50.904;6.136;2023-01-31T02:18:57;3.70;99.90
12568;DHT22;6349;50.904;6.136;2023-01-31T02:26:46;3.70;99.90
12568;DHT22;6349;50.904;6.136;2023-01-31T02:31:50;3.70;99.90
12568;DHT22;6349;50.904;6.136;2023-01-31T02:34:01;3.70;99.90
12568;DHT22;6349;50.904;6.136;2023-01-31T02:41:14;3.70;99.90
12568;DHT22;6349;50.904;6.136;2023-01-31T02:44:04;3.70;99.90
12568;DHT22;6349;50.904;6.136;2023-01-31T02:46:13;3.70;99.90
12568;DHT22;6349;50.904;6.136;2023-01-31T02:48:37;3.70;99.90
12568;DHT22;6349;50.904;6.136;2023-01-31T02:50:56;3.70;99.90
12568;DHT22;6349;50.904;6.136;2023-01-31T02:53:10;3.70;99.90
12568;DHT22;6349;50.904;6.136;2023-01-31T02:55:22;3.70;99.90
12568;DHT22;6349;50.904;6.136;2023-01-31T02:57:45;3.70;99.90
12568;DHT22;6349;50.904;6.136;2023-01-31T02:59:48;3.70;99.90
12568;DHT22;6349;50.904;6.136;2023-01-31T03:01:55;3.70;99.90
12568;DHT22;6349;50.904;6.136;2023-01-31T03:04:05;3.70;99.90
12568;DHT22;6349;50.904;6.136;2023-01-31T03:08:34;3.70;99.90
12568;DHT22;6349;50.904;6.136;2023-01-31T03:10:50;3.70;99.90
12568;DHT22;6349;50.904;6.136;2023-01-31T03:13:19;3.80;99.90
12568;DHT22;6349;50.904;6.136;2023-01-31T03:18:14;3.80;99.90
12568;DHT22;6349;50.904;6.136;2023-01-31T03:20:36;3.80;99.90
12568;DHT22;6349;50.904;6.136;2023-01-31T03:22:45;3.80;99.90
12568;DHT22;6349;50.904;6.136;2023-01-31T03:24:49;3.80;99.90
12568;DHT22;6349;50.904;6.136;2023-01-31T03:26:53;3.70;99.90
12568;DHT22;6349;50.904;6.136;2023-01-31T03:28:56;3.70;99.90
12568;DHT22;6349;50.904;6.136;2023-01-31T03:31:04;3.80;99.90
12568;DHT22;6349;50.904;6.136;2023-01-31T03:33:44;3.80;99.90
12568;DHT22;6349;50.904;6.136;2023-01-31T03:35:34;3.80;99.90
12568;DHT22;6349;50.904;6.136;2023-01-31T03:37:42;3.80;99.90
12568;DHT22;6349;50.904;6.136;2023-01-31T03:40:12;3.80;99.90
12568;DHT22;6349;50.904;6.136;2023-01-31T03:42:22;3.80;99.90
12568;DHT22;6349;50.904;6.136;2023-01-31T03:44:48;3.80;99.90
12568;DHT22;6349;50.904;6.136;2023-01-31T03:46:59;3.80;99.90
12568;DHT22;6349;50.904;6.136;2023-01-31T03:49:04;3.80;99.90
12568;DHT22;6349;50.904;6.136;2023-01-31T03:51:13;3.80;99.90
12568;DHT22;6349;50.904;6.136;2023-01-31T03:53:40;3.80;99.90
12568;DHT22;6349;50.904;6.136;2023-01-31T03:55:47;3.80;99.90
12568;DHT22;6349;50.904;6.136;2023-01-31T03:57:51;3.80;99.90
12568;DHT22;6349;50.904;6.136;2023-01-31T03:59:57;3.90;99.90
12568;DHT22;6349;50.904;6.136;2023-01-31T04:02:00;3.90;99.90
12568;DHT22;6349;50.904;6.136;2023-01-31T04:04:06;3.90;99.90
12568;DHT22;6349;50.904;6.136;2023-01-31T04:06:08;3.90;99.90
12568;DHT22;6349;50.904;6.136;2023-01-31T04:08:10;3.90;99.90
12568;DHT22;6349;50.904;6.136;2023-01-31T04:10:14;3.90;99.90
12568;DHT22;6349;50.904;6.136;2023-01-31T04:12:15;3.90;99.90
12568;DHT22;6349;50.904;6.136;2023-01-31T04:14:16;4.00;99.90
12568;DHT22;6349;50.904;6.136;2023-01-31T04:16:16;4.00;99.90
12568;DHT22;6349;50.904;6.136;2023-01-31T04:18:17;3.90;99.90
12568;DHT22;6349;50.904;6.136;2023-01-31T04:20:18;4.00;99.90
12568;DHT22;6349;50.904;6.136;2023-01-31T04:22:18;4.00;99.90
12568;DHT22;6349;50.904;6.136;2023-01-31T04:24:19;4.00;99.90
12568;DHT22;6349;50.904;6.136;2023-01-31T04:26:20;4.00;99.90
12568;DHT22;6349;50.904;6.136;2023-01-31T04:28:21;4.00;99.90
12568;DHT22;6349;50.904;6.136;2023-01-31T04:30:22;4.00;99.90
12568;DHT22;6349;50.904;6.136;2023-01-31T04:32:22;3.90;99.90
12568;DHT22;6349;50.904;6.136;2023-01-31T04:34:23;3.90;99.90
12568;DHT22;6349;50.904;6.136;2023-01-31T04:36:24;3.90;99.90
12568;DHT22;6349;50.904;6.136;2023-01-31T04:38:25;3.90;99.90
12568;DHT22;6349;50.904;6.136;2023-01-31T04:40:26;3.90;99.90
12568;DHT22;6349;50.904;6.136;2023-01-31T04:42:26;3.90;99.90
12568;DHT22;6349;50.904;6.136;2023-01-31T04:44:27;3.90;99.90
12568;DHT22;6349;50.904;6.136;2023-01-31T04:46:28;3.90;99.90
12568;DHT22;6349;50.904;6.136;2023-01-31T04:48:28;3.90;99.90
12568;DHT22;6349;50.904;6.136;2023-01-31T04:50:29;3.90;99.90
12568;DHT22;6349;50.904;6.136;2023-01-31T04:52:30;3.90;99.90
12568;DHT22;6349;50.904;6.136;2023-01-31T04:54:30;3.80;99.90
12568;DHT22;6349;50.904;6.136;2023-01-31T04:56:32;3.90;99.90
12568;DHT22;6349;50.904;6.136;2023-01-31T04:58:32;3.90;99.90
12568;DHT22;6349;50.904;6.136;2023-01-31T05:00:33;3.80;99.90
12568;DHT22;6349;50.904;6.136;2023-01-31T05:02:34;3.90;99.90
12568;DHT22;6349;50.904;6.136;2023-01-31T05:04:35;3.80;99.90
12568;DHT22;6349;50.904;6.136;2023-01-31T05:06:36;3.80;99.90
12568;DHT22;6349;50.904;6.136;2023-01-31T05:08:36;3.80;99.90
12568;DHT22;6349;50.904;6.136;2023-01-31T05:10:37;3.80;99.90
12568;DHT22;6349;50.904;6.136;2023-01-31T05:12:38;3.80;99.90
12568;DHT22;6349;50.904;6.136;2023-01-31T05:14:39;3.80;99.90
12568;DHT22;6349;50.904;6.136;2023-01-31T05:16:40;3.80;99.90
12568;DHT22;6349;50.904;6.136;2023-01-31T05:18:40;3.80;99.90
12568;DHT22;6349;50.904;6.136;2023-01-31T05:20:41;3.80;99.90
12568;DHT22;6349;50.904;6.136;2023-01-31T05:22:46;3.80;99.90
12568;DHT22;6349;50.904;6.136;2023-01-31T05:24:48;3.80;99.90
12568;DHT22;6349;50.904;6.136;2023-01-31T05:26:49;3.80;99.90
12568;DHT22;6349;50.904;6.136;2023-01-31T05:28:52;3.70;99.90
12568;DHT22;6349;50.904;6.136;2023-01-31T05:30:53;3.70;99.90
12568;DHT22;6349;50.904;6.136;2023-01-31T05:32:54;3.70;99.90
12568;DHT22;6349;50.904;6.136;2023-01-31T05:34:54;3.70;99.90
12568;DHT22;6349;50.904;6.136;2023-01-31T05:36:55;3.80;99.90
12568;DHT22;6349;50.904;6.136;2023-01-31T05:38:56;3.80;99.90
12568;DHT22;6349;50.904;6.136;2023-01-31T05:40:57;3.70;99.90
12568;DHT22;6349;50.904;6.136;2023-01-31T05:42:58;3.70;99.90
12568;DHT22;6349;50.904;6.136;2023-01-31T05:45:00;3.70;99.90
12568;DHT22;6349;50.904;6.136;2023-01-31T05:47:01;3.70;99.90
12568;DHT22;6349;50.904;6.136;2023-01-31T05:49:01;3.70;99.90
12568;DHT22;6349;50.904;6.136;2023-01-31T05:51:02;3.70;99.90
12568;DHT22;6349;50.904;6.136;2023-01-31T05:53:03;3.70;99.90
12568;DHT22;6349;50.904;6.136;2023-01-31T05:55:04;3.70;99.90
12568;DHT22;6349;50.904;6.136;2023-01-31T05:57:05;3.70;99.90
12568;DHT22;6349;50.904;6.136;2023-01-31T05:59:06;3.70;99.90
12568;DHT22;6349;50.904;6.136;2023-01-31T06:01:06;3.70;99.90
12568;DHT22;6349;50.904;6.136;2023-01-31T06:03:08;3.70;99.90
12568;DHT22;6349;50.904;6.136;2023-01-31T06:05:09;3.70;99.90
12568;DHT22;6349;50.904;6.136;2023-01-31T06:07:10;3.70;99.90
12568;DHT22;6349;50.904;6.136;2023-01-31T06:09:11;3.70;99.90
12568;DHT22;6349;50.904;6.136;2023-01-31T06:11:12;3.70;99.90
12568;DHT22;6349;50.904;6.136;2023-01-31T06:13:13;3.70;99.90
12568;DHT22;6349;50.904;6.136;2023-01-31T06:15:14;3.70;99.90
12568;DHT22;6349;50.904;6.136;2023-01-31T06:17:15;3.70;99.90
12568;DHT22;6349;50.904;6.136;2023-01-31T06:19:16;3.70;99.90
12568;DHT22;6349;50.904;6.136;2023-01-31T06:21:16;3.60;99.90
12568;DHT22;6349;50.904;6.136;2023-01-31T06:23:18;3.70;99.90
12568;DHT22;6349;50.904;6.136;2023-01-31T06:25:19;3.70;99.90
12568;DHT22;6349;50.904;6.136;2023-01-31T06:27:19;3.70;99.90
12568;DHT22;6349;50.904;6.136;2023-01-31T06:29:20;3.70;99.90
12568;DHT22;6349;50.904;6.136;2023-01-31T06:31:21;3.70;99.90
12568;DHT22;6349;50.904;6.136;2023-01-31T06:33:21;3.70;99.90
12568;DHT22;6349;50.904;6.136;2023-01-31T06:35:22;3.70;99.90
12568;DHT22;6349;50.904;6.136;2023-01-31T06:37:23;3.70;99.90
12568;DHT22;6349;50.904;6.136;2023-01-31T06:39:24;3.80;99.90
12568;DHT22;6349;50.904;6.136;2023-01-31T06:41:25;3.80;99.90
12568;DHT22;6349;50.904;6.136;2023-01-31T06:43:25;3.80;99.90
12568;DHT22;6349;50.904;6.136;2023-01-31T06:45:26;3.80;99.90
12568;DHT22;6349;50.904;6.136;2023-01-31T06:47:27;3.80;99.90
12568;DHT22;6349;50.904;6.136;2023-01-31T06:49:28;3.80;99.90
12568;DHT22;6349;50.904;6.136;2023-01-31T06:51:28;3.90;99.90
12568;DHT22;6349;50.904;6.136;2023-01-31T06:53:29;3.90;99.90
12568;DHT22;6349;50.904;6.136;2023-01-31T06:55:30;3.90;99.90
12568;DHT22;6349;50.904;6.136;2023-01-31T06:57:30;3.90;99.90
12568;DHT22;6349;50.904;6.136;2023-01-31T06:59:31;3.90;99.90
12568;DHT22;6349;50.904;6.136;2023-01-31T07:01:32;4.00;99.90
12568;DHT22;6349;50.904;6.136;2023-01-31T07:03:32;4.00;99.90
12568;DHT22;6349;50.904;6.136;2023-01-31T07:05:33;4.00;99.90
12568;DHT22;6349;50.904;6.136;2023-01-31T07:07:34;4.00;99.90
12568;DHT22;6349;50.904;6.136;2023-01-31T07:09:34;4.00;99.90
12568;DHT22;6349;50.904;6.136;2023-01-31T07:11:36;4.00;99.90
12568;DHT22;6349;50.904;6.136;2023-01-31T07:13:37;4.10;99.90
12568;DHT22;6349;50.904;6.136;2023-01-31T07:15:38;4.10;99.90
12568;DHT22;6349;50.904;6.136;2023-01-31T07:17:39;4.10;99.90
12568;DHT22;6349;50.904;6.136;2023-01-31T07:19:39;4.10;99.90
12568;DHT22;6349;50.904;6.136;2023-01-31T07:21:40;4.10;99.90
12568;DHT22;6349;50.904;6.136;2023-01-31T07:23:41;4.10;99.90
12568;DHT22;6349;50.904;6.136;2023-01-31T07:25:42;4.10;99.90
12568;DHT22;6349;50.904;6.136;2023-01-31T07:27:42;4.20;99.90
12568;DHT22;6349;50.904;6.136;2023-01-31T07:29:43;4.20;99.90
12568;DHT22;6349;50.904;6.136;2023-01-31T07:31:44;4.20;99.90
12568;DHT22;6349;50.904;6.136;2023-01-31T07:33:45;4.20;99.90
12568;DHT22;6349;50.904;6.136;2023-01-31T07:35:46;4.20;99.90
12568;DHT22;6349;50.904;6.136;2023-01-31T07:37:47;4.20;99.90
12568;DHT22;6349;50.904;6.136;2023-01-31T07:39:47;4.20;99.90
12568;DHT22;6349;50.904;6.136;2023-01-31T07:41:48;4.20;99.90
12568;DHT22;6349;50.904;6.136;2023-01-31T07:43:50;4.20;99.90
12568;DHT22;6349;50.904;6.136;2023-01-31T07:45:50;4.30;99.90
12568;DHT22;6349;50.904;6.136;2023-01-31T07:47:51;4.30;99.90
12568;DHT22;6349;50.904;6.136;2023-01-31T07:49:52;4.30;99.90
12568;DHT22;6349;50.904;6.136;2023-01-31T07:51:52;4.20;99.90
12568;DHT22;6349;50.904;6.136;2023-01-31T07:53:53;4.30;99.90
12568;DHT22;6349;50.904;6.136;2023-01-31T07:56:14;4.30;99.90
12568;DHT22;6349;50.904;6.136;2023-01-31T07:58:15;4.40;99.90
12568;DHT22;6349;50.904;6.136;2023-01-31T08:00:16;4.30;99.90
12568;DHT22;6349;50.904;6.136;2023-01-31T08:02:37;4.30;99.90
12568;DHT22;6349;50.904;6.136;2023-01-31T08:04:57;4.30;99.90
12568;DHT22;6349;50.904;6.136;2023-01-31T08:06:58;4.30;99.90
12568;DHT22;6349;50.904;6.136;2023-01-31T08:09:02;4.40;99.90
12568;DHT22;6349;50.904;6.136;2023-01-31T08:11:03;4.40;99.90
12568;DHT22;6349;50.904;6.136;2023-01-31T08:13:05;4.40;99.90
12568;DHT22;6349;50.904;6.136;2023-01-31T08:15:06;4.40;99.90
12568;DHT22;6349;50.904;6.136;2023-01-31T08:17:07;4.40;99.90
12568;DHT22;6349;50.904;6.136;2023-01-31T08:19:08;4.40;99.90
12568;DHT22;6349;50.904;6.136;2023-01-31T08:21:10;4.40;99.90
12568;DHT22;6349;50.904;6.136;2023-01-31T08:23:11;4.40;99.90
12568;DHT22;6349;50.904;6.136;2023-01-31T08:25:12;4.50;99.90
12568;DHT22;6349;50.904;6.136;2023-01-31T08:27:13;4.50;99.90
12568;DHT22;6349;50.904;6.136;2023-01-31T08:29:13;4.50;99.90
12568;DHT22;6349;50.904;6.136;2023-01-31T08:31:18;4.50;99.90
12568;DHT22;6349;50.904;6.136;2023-01-31T08:33:19;4.50;99.90
12568;DHT22;6349;50.904;6.136;2023-01-31T08:35:19;4.60;99.90
12568;DHT22;6349;50.904;6.136;2023-01-31T08:37:20;4.60;99.90
12568;DHT22;6349;50.904;6.136;2023-01-31T08:39:20;4.60;99.90
12568;DHT22;6349;50.904;6.136;2023-01-31T08:41:23;4.60;99.90
12568;DHT22;6349;50.904;6.136;2023-01-31T08:43:25;4.50;99.90
12568;DHT22;6349;50.904;6.136;2023-01-31T08:45:28;4.60;99.90
12568;DHT22;6349;50.904;6.136;2023-01-31T08:47:29;4.70;99.90
12568;DHT22;6349;50.904;6.136;2023-01-31T08:49:31;4.70;99.90
12568;DHT22;6349;50.904;6.136;2023-01-31T08:51:36;4.70;99.90
12568;DHT22;6349;50.904;6.136;2023-01-31T08:53:40;4.80;99.90
12568;DHT22;6349;50.904;6.136;2023-01-31T08:55:42;4.70;99.90
12568;DHT22;6349;50.904;6.136;2023-01-31T08:57:43;4.80;99.90
12568;DHT22;6349;50.904;6.136;2023-01-31T08:59:47;4.80;99.90
12568;DHT22;6349;50.904;6.136;2023-01-31T09:01:51;4.80;99.90
12568;DHT22;6349;50.904;6.136;2023-01-31T09:04:50;4.80;99.90
12568;DHT22;6349;50.904;6.136;2023-01-31T09:07:05;4.80;99.90
12568;DHT22;6349;50.904;6.136;2023-01-31T09:09:23;4.80;99.90
12568;DHT22;6349;50.904;6.136;2023-01-31T09:11:29;4.80;99.90
12568;DHT22;6349;50.904;6.136;2023-01-31T09:13:54;4.80;99.90
12568;DHT22;6349;50.904;6.136;2023-01-31T09:16:23;4.80;99.90
12568;DHT22;6349;50.904;6.136;2023-01-31T09:18:25;4.80;99.90
12568;DHT22;6349;50.904;6.136;2023-01-31T09:20:29;4.80;99.90
12568;DHT22;6349;50.904;6.136;2023-01-31T09:22:32;4.80;99.90
12568;DHT22;6349;50.904;6.136;2023-01-31T09:24:35;4.80;99.90
12568;DHT22;6349;50.904;6.136;2023-01-31T09:26:37;4.80;99.90
12568;DHT22;6349;50.904;6.136;2023-01-31T09:28:39;4.90;99.90
12568;DHT22;6349;50.904;6.136;2023-01-31T09:30:44;4.90;99.90
12568;DHT22;6349;50.904;6.136;2023-01-31T09:32:46;4.90;99.90
12568;DHT22;6349;50.904;6.136;2023-01-31T09:34:49;5.00;99.90
12568;DHT22;6349;50.904;6.136;2023-01-31T09:36:51;5.00;99.90
12568;DHT22;6349;50.904;6.136;2023-01-31T09:38:55;5.00;99.90
12568;DHT22;6349;50.904;6.136;2023-01-31T09:41:01;4.90;99.90
12568;DHT22;6349;50.904;6.136;2023-01-31T09:43:04;5.00;99.90
12568;DHT22;6349;50.904;6.136;2023-01-31T09:45:13;5.00;99.90
12568;DHT22;6349;50.904;6.136;2023-01-31T09:47:24;5.00;99.90
12568;DHT22;6349;50.904;6.136;2023-01-31T09:49:31;5.00;99.90
12568;DHT22;6349;50.904;6.136;2023-01-31T09:51:37;5.10;99.90
12568;DHT22;6349;50.904;6.136;2023-01-31T09:53:40;5.00;99.90
12568;DHT22;6349;50.904;6.136;2023-01-31T10:01:37;5.10;99.90
12568;DHT22;6349;50.904;6.136;2023-01-31T10:06:27;5.20;99.90
12568;DHT22;6349;50.904;6.136;2023-01-31T10:08:55;5.20;99.90
12568;DHT22;6349;50.904;6.136;2023-01-31T10:11:00;5.20;99.90
12568;DHT22;6349;50.904;6.136;2023-01-31T10:13:40;5.10;99.90
12568;DHT22;6349;50.904;6.136;2023-01-31T10:15:46;5.20;99.90
12568;DHT22;6349;50.904;6.136;2023-01-31T10:17:54;5.20;99.90
12568;DHT22;6349;50.904;6.136;2023-01-31T10:20:15;5.20;99.90
12568;DHT22;6349;50.904;6.136;2023-01-31T10:22:24;5.20;99.90
12568;DHT22;6349;50.904;6.136;2023-01-31T10:24:35;5.20;99.90
12568;DHT22;6349;50.904;6.136;2023-01-31T10:26:41;5.20;99.90
12568;DHT22;6349;50.904;6.136;2023-01-31T10:29:03;5.30;99.90
12568;DHT22;6349;50.904;6.136;2023-01-31T10:31:40;5.30;99.90
12568;DHT22;6349;50.904;6.136;2023-01-31T10:33:52;5.30;99.90
12568;DHT22;6349;50.904;6.136;2023-01-31T10:35:56;5.30;99.90
12568;DHT22;6349;50.904;6.136;2023-01-31T10:38:06;5.40;99.90
12568;DHT22;6349;50.904;6.136;2023-01-31T10:40:15;5.40;99.90
12568;DHT22;6349;50.904;6.136;2023-01-31T10:42:29;5.40;99.90
12568;DHT22;6349;50.904;6.136;2023-01-31T10:44:55;5.40;99.90
12568;DHT22;6349;50.904;6.136;2023-01-31T10:46:58;5.40;99.90
12568;DHT22;6349;50.904;6.136;2023-01-31T10:48:59;5.50;99.90
12568;DHT22;6349;50.904;6.136;2023-01-31T10:51:26;5.40;99.90
12568;DHT22;6349;50.904;6.136;2023-01-31T10:54:24;5.40;99.90
12568;DHT22;6349;50.904;6.136;2023-01-31T10:56:24;5.40;99.90
12568;DHT22;6349;50.904;6.136;2023-01-31T10:58:29;5.50;99.90
12568;DHT22;6349;50.904;6.136;2023-01-31T11:00:33;5.50;99.90
12568;DHT22;6349;50.904;6.136;2023-01-31T11:02:36;5.50;99.90
12568;DHT22;6349;50.904;6.136;2023-01-31T11:04:41;5.50;99.90
12568;DHT22;6349;50.904;6.136;2023-01-31T11:06:44;5.50;99.90
12568;DHT22;6349;50.904;6.136;2023-01-31T11:08:52;5.50;99.90
12568;DHT22;6349;50.904;6.136;2023-01-31T11:10:57;5.50;99.90
12568;DHT22;6349;50.904;6.136;2023-01-31T11:13:06;5.50;99.90
12568;DHT22;6349;50.904;6.136;2023-01-31T11:15:19;5.50;99.90
12568;DHT22;6349;50.904;6.136;2023-01-31T11:17:23;5.60;99.90
12568;DHT22;6349;50.904;6.136;2023-01-31T11:19:33;5.60;99.90
12568;DHT22;6349;50.904;6.136;2023-01-31T11:21:37;5.50;99.90
12568;DHT22;6349;50.904;6.136;2023-01-31T11:23:43;5.50;99.90
12568;DHT22;6349;50.904;6.136;2023-01-31T11:25:48;5.50;99.90
12568;DHT22;6349;50.904;6.136;2023-01-31T11:27:57;5.60;99.90
12568;DHT22;6349;50.904;6.136;2023-01-31T11:30:01;5.60;99.90
12568;DHT22;6349;50.904;6.136;2023-01-31T11:32:20;5.60;99.90
12568;DHT22;6349;50.904;6.136;2023-01-31T11:34:29;5.60;99.90
12568;DHT22;6349;50.904;6.136;2023-01-31T11:36:40;5.60;99.90
12568;DHT22;6349;50.904;6.136;2023-01-31T11:38:42;5.60;99.90
12568;DHT22;6349;50.904;6.136;2023-01-31T11:40:43;5.60;99.90
12568;DHT22;6349;50.904;6.136;2023-01-31T11:42:54;5.60;99.90
12568;DHT22;6349;50.904;6.136;2023-01-31T11:45:00;5.60;99.90
12568;DHT22;6349;50.904;6.136;2023-01-31T11:47:03;5.60;99.90
12568;DHT22;6349;50.904;6.136;2023-01-31T11:49:13;5.60;99.90
12568;DHT22;6349;50.904;6.136;2023-01-31T11:51:26;5.60;99.90
12568;DHT22;6349;50.904;6.136;2023-01-31T11:53:45;5.60;99.90
12568;DHT22;6349;50.904;6.136;2023-01-31T11:55:48;5.60;99.90
12568;DHT22;6349;50.904;6.136;2023-01-31T11:57:56;5.70;99.90
12568;DHT22;6349;50.904;6.136;2023-01-31T11:59:59;5.70;99.90
12568;DHT22;6349;50.904;6.136;2023-01-31T12:02:01;5.60;99.90
12568;DHT22;6349;50.904;6.136;2023-01-31T12:04:03;5.70;99.90
12568;DHT22;6349;50.904;6.136;2023-01-31T12:06:07;5.70;99.90
12568;DHT22;6349;50.904;6.136;2023-01-31T12:08:30;5.70;99.90
12568;DHT22;6349;50.904;6.136;2023-01-31T12:10:39;5.70;99.90
12568;DHT22;6349;50.904;6.136;2023-01-31T12:12:42;5.80;99.90
12568;DHT22;6349;50.904;6.136;2023-01-31T12:14:47;5.70;99.90
12568;DHT22;6349;50.904;6.136;2023-01-31T12:16:49;5.80;99.90
12568;DHT22;6349;50.904;6.136;2023-01-31T12:24:02;5.80;99.90
12568;DHT22;6349;50.904;6.136;2023-01-31T12:26:16;5.80;99.90
12568;DHT22;6349;50.904;6.136;2023-01-31T12:28:32;5.90;99.90
12568;DHT22;6349;50.904;6.136;2023-01-31T12:36:13;5.80;99.90
12568;DHT22;6349;50.904;6.136;2023-01-31T12:43:34;5.90;99.90
12568;DHT22;6349;50.904;6.136;2023-01-31T12:46:00;5.90;99.90
12568;DHT22;6349;50.904;6.136;2023-01-31T12:48:33;5.90;99.90
12568;DHT22;6349;50.904;6.136;2023-01-31T12:50:51;5.90;99.90
12568;DHT22;6349;50.904;6.136;2023-01-31T12:53:24;5.90;99.90
12568;DHT22;6349;50.904;6.136;2023-01-31T12:55:36;6.00;99.90
12568;DHT22;6349;50.904;6.136;2023-01-31T13:00:08;6.00;99.90
12568;DHT22;6349;50.904;6.136;2023-01-31T13:07:44;6.10;99.90
12568;DHT22;6349;50.904;6.136;2023-01-31T13:09:49;6.10;99.90
12568;DHT22;6349;50.904;6.136;2023-01-31T13:14:13;6.20;99.90
12568;DHT22;6349;50.904;6.136;2023-01-31T13:16:20;6.20;99.90
12568;DHT22;6349;50.904;6.136;2023-01-31T13:18:22;6.20;99.90
12568;DHT22;6349;50.904;6.136;2023-01-31T13:20:36;6.20;99.90
12568;DHT22;6349;50.904;6.136;2023-01-31T13:22:47;6.30;99.90
12568;DHT22;6349;50.904;6.136;2023-01-31T13:27:23;6.30;99.90
12568;DHT22;6349;50.904;6.136;2023-01-31T13:29:35;6.30;99.90
12568;DHT22;6349;50.904;6.136;2023-01-31T13:31:47;6.30;99.90
12568;DHT22;6349;50.904;6.136;2023-01-31T13:36:32;6.30;99.90
12568;DHT22;6349;50.904;6.136;2023-01-31T13:38:42;6.30;99.90
12568;DHT22;6349;50.904;6.136;2023-01-31T13:40:50;6.30;99.90
12568;DHT22;6349;50.904;6.136;2023-01-31T13:42:54;6.40;99.90
12568;DHT22;6349;50.904;6.136;2023-01-31T13:45:04;6.40;99.90
12568;DHT22;6349;50.904;6.136;2023-01-31T13:47:29;6.30;99.90
12568;DHT22;6349;50.904;6.136;2023-01-31T13:49:40;6.30;99.90
12568;DHT22;6349;50.904;6.136;2023-01-31T13:51:54;6.30;99.90
12568;DHT22;6349;50.904;6.136;2023-01-31T13:54:05;6.30;99.90
12568;DHT22;6349;50.904;6.136;2023-01-31T13:56:12;6.30;99.90
12568;DHT22;6349;50.904;6.136;2023-01-31T13:58:28;6.30;99.90
12568;DHT22;6349;50.904;6.136;2023-01-31T14:03:03;6.30;99.90
12568;DHT22;6349;50.904;6.136;2023-01-31T14:10:42;6.30;99.90
12568;DHT22;6349;50.904;6.136;2023-01-31T14:12:44;6.40;99.90
12568;DHT22;6349;50.904;6.136;2023-01-31T14:14:49;6.40;99.90
12568;DHT22;6349;50.904;6.136;2023-01-31T14:16:51;6.40;99.90
12568;DHT22;6349;50.904;6.136;2023-01-31T14:18:53;6.30;99.90
12568;DHT22;6349;50.904;6.136;2023-01-31T14:20:54;6.40;99.90
12568;DHT22;6349;50.904;6.136;2023-01-31T14:23:33;6.30;99.90
12568;DHT22;6349;50.904;6.136;2023-01-31T14:25:40;6.30;99.90
12568;DHT22;6349;50.904;6.136;2023-01-31T14:30:17;6.30;99.90
12568;DHT22;6349;50.904;6.136;2023-01-31T14:34:48;6.30;99.90
12568;DHT22;6349;50.904;6.136;2023-01-31T14:37:16;6.30;99.90
12568;DHT22;6349;50.904;6.136;2023-01-31T14:39:48;6.40;99.90
12568;DHT22;6349;50.904;6.136;2023-01-31T14:47:29;6.30;99.90
12568;DHT22;6349;50.904;6.136;2023-01-31T14:50:01;6.30;99.90
12568;DHT22;6349;50.904;6.136;2023-01-31T14:52:24;6.30;99.90
12568;DHT22;6349;50.904;6.136;2023-01-31T14:57:32;6.30;99.90
12568;DHT22;6349;50.904;6.136;2023-01-31T15:00:00;6.30;99.90
12568;DHT22;6349;50.904;6.136;2023-01-31T15:04:39;6.30;99.90
12568;DHT22;6349;50.904;6.136;2023-01-31T15:06:40;6.30;99.90